Time;durP1;ratioP1;P1;durP2;ratioP2;P2;SDS_P1;SDS_P2;PMS_P1;PMS_P2;Temp;Humidity;BMP_temperature;BMP_pressure;BME280_temperature;BME280_humidity;BME280_pressure;Samples;Min_cycle;Max_cycle;Signal;HPM_P1;HPM_P2
2021/02/22 00:08:51;;;;;;;130.7;96.3;;;;;;;-1.1;100;99599.73;;;;
2021/02/22 00:18:49;;;;;;;150.8;107.4;;;;;;;-1.23;100;99605.88;;;;
2021/02/22 00:28:46;;;;;;;108.4;81.6;;;;;;;-1.32;100;99604.44;;;;
2021/02/22 00:38:44;;;;;;;110;78.5;;;;;;;-1.43;100;99607.73;;;;
2021/02/22 00:48:41;;;;;;;101.2;75.6;;;;;;;-1.45;100;99608.94;;;;
2021/02/22 00:58:39;;;;;;;79.1;68.2;;;;;;;-1.5;100;99601.64;;;;
2021/02/22 01:08:36;;;;;;;85.2;64.2;;;;;;;-1.55;100;99598.78;;;;
2021/02/22 01:18:34;;;;;;;102.7;71;;;;;;;-1.57;100;99598.19;;;;
2021/02/22 01:28:31;;;;;;;79.7;56.1;;;;;;;-1.63;100;99585.77;;;;
2021/02/22 01:38:29;;;;;;;95.7;60.7;;;;;;;-1.65;100;99582.53;;;;
2021/02/22 01:48:26;;;;;;;89;68.9;;;;;;;-1.72;100;99577.25;;;;
2021/02/22 01:58:24;;;;;;;83.1;64.8;;;;;;;-1.81;100;99567.92;;;;
2021/02/22 02:08:21;;;;;;;81.5;57.8;;;;;;;-1.88;100;99566.28;;;;
2021/02/22 02:18:19;;;;;;;86.7;59.7;;;;;;;-1.95;100;99560.19;;;;
2021/02/22 02:28:16;;;;;;;89.6;67.4;;;;;;;-2.01;100;99540.66;;;;
2021/02/22 02:38:14;;;;;;;91.5;66.5;;;;;;;-2.09;100;99528.5;;;;
2021/02/22 02:48:11;;;;;;;86.7;64.1;;;;;;;-2.21;100;99535.38;;;;
2021/02/22 02:58:08;;;;;;;83.6;66.3;;;;;;;-2.28;100;99537.2;;;;
2021/02/22 03:08:06;;;;;;;98.6;69.1;;;;;;;-2.39;100;99537.79;;;;
2021/02/22 03:18:03;;;;;;;88.9;69.7;;;;;;;-2.45;100;99546.52;;;;
2021/02/22 03:28:01;;;;;;;108.1;72;;;;;;;-2.49;100;99555.02;;;;
2021/02/22 03:37:58;;;;;;;92.2;67.8;;;;;;;-2.59;100;99552.77;;;;
2021/02/22 03:47:56;;;;;;;77.1;51.8;;;;;;;-2.59;100;99556.23;;;;
2021/02/22 03:57:53;;;;;;;71.7;61.3;;;;;;;-2.6;100;99549.31;;;;
2021/02/22 04:07:50;;;;;;;74.9;53.3;;;;;;;-2.59;100;99544.86;;;;
2021/02/22 04:17:48;;;;;;;65.6;49.2;;;;;;;-2.65;100;99556.22;;;;
2021/02/22 04:27:45;;;;;;;60.3;47.2;;;;;;;-2.68;100;99561.89;;;;
2021/02/22 04:37:43;;;;;;;68.7;47.3;;;;;;;-2.74;100;99562.69;;;;
2021/02/22 04:47:40;;;;;;;65.2;49.8;;;;;;;-2.83;100;99564.67;;;;
2021/02/22 04:57:37;;;;;;;70;51.3;;;;;;;-2.87;100;99552.07;;;;
2021/02/22 05:07:35;;;;;;;65.8;48.5;;;;;;;-2.9;100;99552.47;;;;
2021/02/22 05:17:32;;;;;;;64;50.3;;;;;;;-2.95;100;99554.9;;;;
2021/02/22 05:27:29;;;;;;;66.1;52.3;;;;;;;-2.99;100;99543.11;;;;
2021/02/22 05:37:27;;;;;;;67.3;49.4;;;;;;;-2.93;100;99556.32;;;;
2021/02/22 05:47:24;;;;;;;72.6;50.8;;;;;;;-2.88;100;99561.02;;;;
2021/02/22 05:57:21;;;;;;;94.5;70;;;;;;;-2.82;100;99570.77;;;;
2021/02/22 06:07:19;;;;;;;92.4;64.4;;;;;;;-2.72;100;99573.84;;;;
2021/02/22 06:17:16;;;;;;;67.4;52.1;;;;;;;-2.57;100;99585.86;;;;
2021/02/22 06:27:14;;;;;;;63.8;46.6;;;;;;;-2.35;100;99591.81;;;;
2021/02/22 06:37:11;;;;;;;88.5;60.3;;;;;;;-2.22;100;99580.48;;;;
2021/02/22 06:47:11;;;;;;;81.1;61;;;;;;;-2.08;100;99580.28;;;;
2021/02/22 06:57:06;;;;;;;86.8;58.2;;;;;;;-1.61;100;99581.11;;;;
2021/02/22 07:07:04;;;;;;;43.7;33.5;;;;;;;-1.2;100;99573.72;;;;
2021/02/22 07:17:01;;;;;;;43.4;30.2;;;;;;;-0.72;100;99573.34;;;;
2021/02/22 07:26:59;;;;;;;49.6;39.9;;;;;;;-0.3;100;99571.91;;;;
2021/02/22 07:36:57;;;;;;;49;38.6;;;;;;;0.04;100;99581.25;;;;
2021/02/22 07:46:54;;;;;;;60.6;42.9;;;;;;;0.45;100;99584.99;;;;
2021/02/22 07:56:52;;;;;;;67.5;47.7;;;;;;;0.7;100;99581.5;;;;
2021/02/22 08:06:50;;;;;;;50;35;;;;;;;1.1;99.69922;99587.21;;;;
2021/02/22 08:16:48;;;;;;;42.9;34.9;;;;;;;1.64;98.7041;99581.01;;;;
2021/02/22 08:26:46;;;;;;;39.6;33.3;;;;;;;2.1;97.19434;99580.35;;;;
2021/02/22 08:36:44;;;;;;;50.9;37.4;;;;;;;2.61;95.75781;99577.86;;;;
2021/02/22 08:46:42;;;;;;;48.4;35.5;;;;;;;3.02;94.23926;99579.55;;;;
2021/02/22 08:56:40;;;;;;;49.7;36.1;;;;;;;3.45;92.04688;99584.45;;;;
2021/02/22 09:06:38;;;;;;;45;35.9;;;;;;;3.77;89.88184;99588.27;;;;
2021/02/22 09:16:37;;;;;;;50.2;35.4;;;;;;;4.43;90.5625;99590.22;;;;
2021/02/22 09:26:36;;;;;;;43.6;34.8;;;;;;;4.9;87.00977;99592.5;;;;
2021/02/22 09:36:33;;;;;;;48.8;36.9;;;;;;;5.39;85.60742;99596.09;;;;
2021/02/22 09:46:31;;;;;;;38.5;34.4;;;;;;;5.76;82.25098;99596.27;;;;
2021/02/22 09:56:30;;;;;;;49.1;36.3;;;;;;;6.22;81.00098;99598.35;;;;
2021/02/22 10:06:28;;;;;;;43.6;34.7;;;;;;;6.74;80.09473;99585.1;;;;
2021/02/22 10:16:27;;;;;;;39.6;35.3;;;;;;;7.09;78.69238;99579.15;;;;
2021/02/22 10:26:25;;;;;;;50.7;40.3;;;;;;;7.69;76.72949;99573.23;;;;
2021/02/22 10:36:25;;;;;;;41.1;33.5;;;;;;;8.17;73.61328;99563.11;;;;
2021/02/22 10:46:26;;;;;;;33.1;29.6;;;;;;;8.68;72.1377;99567.41;;;;
2021/02/22 10:56:22;;;;;;;37.1;26.4;;;;;;;8.98;70.11523;99547.75;;;;
2021/02/22 11:06:20;;;;;;;28.5;25.4;;;;;;;9.24;69.07422;99535;;;;
2021/02/22 11:16:19;;;;;;;35.2;26.1;;;;;;;9.73;67.86523;99535.84;;;;
2021/02/22 11:26:18;;;;;;;32.9;25.7;;;;;;;9.84;66.68652;99513.16;;;;
2021/02/22 11:36:17;;;;;;;40;28.5;;;;;;;10.24;64.91406;99487.81;;;;
2021/02/22 11:46:16;;;;;;;33.9;24.3;;;;;;;10.28;64.18457;99494.25;;;;
2021/02/22 11:56:15;;;;;;;26.8;21.8;;;;;;;10.68;62.58887;99492.27;;;;
2021/02/22 12:06:14;;;;;;;29.6;24;;;;;;;10.81;61.9502;99483.48;;;;
2021/02/22 12:16:13;;;;;;;22.6;19;;;;;;;11.06;61.72461;99489.4;;;;
2021/02/22 12:26:12;;;;;;;22.5;19.1;;;;;;;11.17;61.78418;99475.78;;;;
2021/02/22 12:36:11;;;;;;;26.1;20.1;;;;;;;11.37;61.13184;99484.41;;;;
2021/02/22 12:46:10;;;;;;;24.2;17.2;;;;;;;11.43;60.68555;99482.44;;;;
2021/02/22 12:56:09;;;;;;;23.1;17;;;;;;;11.49;61.02539;99482.08;;;;
2021/02/22 13:06:09;;;;;;;22.4;16;;;;;;;11.37;61.1543;99492.52;;;;
2021/02/22 13:16:08;;;;;;;28.5;17.9;;;;;;;11.34;61.36621;99492.29;;;;
2021/02/22 13:26:07;;;;;;;19.7;15;;;;;;;11.31;61.41895;99490.17;;;;
2021/02/22 13:36:07;;;;;;;35.1;24.4;;;;;;;11.08;62.30566;99487.2;;;;
2021/02/22 13:46:05;;;;;;;33.7;26.9;;;;;;;11.2;62.82129;99477.89;;;;
2021/02/22 13:56:04;;;;;;;27.3;24.3;;;;;;;11.06;63.1084;99486.7;;;;
2021/02/22 14:06:03;;;;;;;31;25.4;;;;;;;10.92;63.65527;99482.28;;;;
2021/02/22 14:16:04;;;;;;;33.1;22;;;;;;;10.68;64.24316;99505.74;;;;
2021/02/22 14:26:01;;;;;;;27.8;20.7;;;;;;;10.6;64.26465;99504.47;;;;
2021/02/22 14:36:00;;;;;;;25.7;18.4;;;;;;;10.48;64.29199;99501.36;;;;
2021/02/22 14:45:59;;;;;;;22.1;18.4;;;;;;;10.27;64.5332;99508.83;;;;
2021/02/22 14:55:58;;;;;;;22.5;18.8;;;;;;;10.04;65.18848;99504.13;;;;
2021/02/22 15:05:57;;;;;;;20.9;17.5;;;;;;;9.85;65.58984;99511.28;;;;
2021/02/22 15:15:56;;;;;;;23;16.3;;;;;;;9.53;66.52441;99519.81;;;;
2021/02/22 15:25:55;;;;;;;70.9;53.7;;;;;;;9.29;67.43652;99521.55;;;;
2021/02/22 15:35:54;;;;;;;31.3;21.9;;;;;;;8.89;69.22168;99534.05;;;;
2021/02/22 15:45:52;;;;;;;32.8;29.3;;;;;;;8.48;70.32715;99541.38;;;;
2021/02/22 15:55:51;;;;;;;22.4;18.6;;;;;;;8.06;71.93359;99538.94;;;;
2021/02/22 16:05:51;;;;;;;25.2;19.8;;;;;;;7.35;73.48535;99558.64;;;;
2021/02/22 16:15:49;;;;;;;27.9;21.2;;;;;;;6.64;75.81641;99552.89;;;;
2021/02/22 17:35:36;;;;;;;58.1;49.4;;;;;;;4.1;89.51758;99664.06;;;;
2021/02/22 17:45:34;;;;;;;90.1;56.7;;;;;;;3.71;89.04883;99671.06;;;;
2021/02/22 17:55:32;;;;;;;89.3;69.2;;;;;;;3.54;90.85059;99678.95;;;;
2021/02/22 18:05:30;;;;;;;80.7;63.4;;;;;;;3.6;92.32227;99678.05;;;;
2021/02/22 18:15:28;;;;;;;92.6;70.1;;;;;;;3.64;93.10352;99681.05;;;;
2021/02/22 18:25:29;;;;;;;74.8;66.7;;;;;;;3.86;93.49414;99695.34;;;;
2021/02/22 18:35:28;;;;;;;89.6;71.7;;;;;;;3.79;93.00391;99703.48;;;;
2021/02/22 18:45:23;;;;;;;91.7;70.5;;;;;;;3.81;93.78125;99722.73;;;;
2021/02/22 18:55:21;;;;;;;86.8;74.8;;;;;;;3.64;93.07227;99732.51;;;;
2021/02/22 19:05:19;;;;;;;118.7;82.1;;;;;;;3.42;95.03125;99739.47;;;;
2021/02/22 19:15:17;;;;;;;89.6;73.2;;;;;;;3.3;94.6416;99735.98;;;;
2021/02/22 19:25:15;;;;;;;94.8;63.6;;;;;;;3.29;97.33105;99739.72;;;;
2021/02/22 19:35:13;;;;;;;73.7;58.8;;;;;;;3.42;97.93262;99744.8;;;;
2021/02/22 19:45:11;;;;;;;76.5;63;;;;;;;3.42;98.27637;99764.27;;;;
2021/02/22 19:55:09;;;;;;;75;58.8;;;;;;;3.08;96.79785;99764.25;;;;
2021/02/22 20:05:07;;;;;;;76;53.6;;;;;;;2.84;97.3623;99766.88;;;;
2021/02/22 20:15:06;;;;;;;69.7;58.7;;;;;;;2.78;99.74805;99767.77;;;;
2021/02/22 20:25:04;;;;;;;73.2;58.5;;;;;;;2.75;100;99762.91;;;;
2021/02/22 20:35:02;;;;;;;75.3;55.7;;;;;;;2.7;100;99776.09;;;;
2021/02/22 20:45:02;;;;;;;74.8;60.4;;;;;;;2.59;100;99789.36;;;;
2021/02/22 20:54:58;;;;;;;78.7;58.8;;;;;;;2.64;100;99792.17;;;;
2021/02/22 21:04:56;;;;;;;72.1;56.8;;;;;;;2.51;100;99803.78;;;;
2021/02/22 21:14:54;;;;;;;76.6;54.5;;;;;;;2.31;100;99798.73;;;;
2021/02/22 21:24:54;;;;;;;61.8;50;;;;;;;2.14;100;99803.04;;;;
2021/02/22 21:34:50;;;;;;;65.7;48.5;;;;;;;1.93;100;99811.46;;;;
2021/02/22 21:44:48;;;;;;;70.9;56.8;;;;;;;1.75;100;99825.55;;;;
2021/02/22 21:54:46;;;;;;;83.9;61.7;;;;;;;1.59;100;99820.81;;;;
2021/02/22 22:04:44;;;;;;;99.9;74.6;;;;;;;1.41;100;99816.27;;;;
2021/02/22 22:14:42;;;;;;;79;60.9;;;;;;;1.25;100;99830.08;;;;
2021/02/22 22:24:40;;;;;;;84.3;62.6;;;;;;;1.26;100;99846.83;;;;
2021/02/22 22:34:38;;;;;;;81;60.2;;;;;;;1.09;100;99867.78;;;;
2021/02/22 22:44:36;;;;;;;76.5;59.1;;;;;;;0.93;100;99879.75;;;;
2021/02/22 22:54:34;;;;;;;88.6;62.4;;;;;;;0.75;100;99897.39;;;;
2021/02/22 23:04:31;;;;;;;82.9;59.3;;;;;;;0.75;100;99900.86;;;;
2021/02/22 23:14:29;;;;;;;77.6;57.5;;;;;;;0.83;100;99911.2;;;;
2021/02/22 23:24:30;;;;;;;83;66.6;;;;;;;0.91;100;99908.31;;;;
2021/02/22 23:34:27;;;;;;;83.8;60;;;;;;;0.73;100;99899.45;;;;
2021/02/22 23:44:23;;;;;;;67.8;55.9;;;;;;;0.55;100;99913.41;;;;
2021/02/22 23:54:21;;;;;;;93;61.3;;;;;;;0.26;100;99922.66;;;;
